createdAt,value
2023-01-20T00:01:01.571Z,15.15
2023-01-20T00:06:24.020Z,19.42
2023-01-20T00:11:45.636Z,19.35
2023-01-20T00:17:06.559Z,17.23
2023-01-20T00:22:27.243Z,13.70
2023-01-20T00:27:48.059Z,14.45
2023-01-20T00:33:08.771Z,15.73
2023-01-20T00:38:29.597Z,12.77
2023-01-20T00:43:50.413Z,12.52
2023-01-20T00:49:11.736Z,12.43
2023-01-20T00:54:32.593Z,12.88
2023-01-20T00:59:53.242Z,12.02
2023-01-20T01:05:14.621Z,12.38
2023-01-20T01:10:35.376Z,11.85
2023-01-20T01:15:55.980Z,10.98
2023-01-20T01:21:17.348Z,10.93
2023-01-20T01:26:38.156Z,12.02
2023-01-20T01:31:59.011Z,11.13
2023-01-20T01:37:19.720Z,10.60
2023-01-20T01:42:42.704Z,10.73
2023-01-20T01:48:09.980Z,10.82
2023-01-20T01:53:36.880Z,10.60
2023-01-20T01:59:01.427Z,10.60
2023-01-20T02:04:25.598Z,10.65
2023-01-20T02:09:46.705Z,11.15
2023-01-20T02:15:08.466Z,12.70
2023-01-20T02:21:09.537Z,12.38
2023-01-20T02:26:53.777Z,11.35
2023-01-20T02:32:19.080Z,12.40
2023-01-20T02:38:08.019Z,12.43
2023-01-20T02:43:54.327Z,10.60
2023-01-20T02:49:20.980Z,11.20
2023-01-20T02:54:46.501Z,10.55
2023-01-20T03:00:16.660Z,10.07
2023-01-20T03:05:42.978Z,9.65
2023-01-20T03:11:07.493Z,10.65
2023-01-20T03:16:29.122Z,7.82
2023-01-20T03:21:50.102Z,8.55
2023-01-20T03:27:12.080Z,8.18
2023-01-20T03:32:33.234Z,10.43
2023-01-20T03:37:54.239Z,14.88
2023-01-20T03:43:30.428Z,12.93
2023-01-20T03:49:01.467Z,10.60
2023-01-20T03:54:46.404Z,10.57
2023-01-20T04:00:09.883Z,9.98
2023-01-20T04:05:34.100Z,12.20
2023-01-20T04:10:56.898Z,13.70
2023-01-20T04:16:19.160Z,12.95
2023-01-20T04:21:45.102Z,11.63
2023-01-20T04:27:05.939Z,12.75
2023-01-20T04:32:26.575Z,10.38
2023-01-20T04:37:47.622Z,9.88
2023-01-20T04:43:10.149Z,9.70
2023-01-20T04:48:31.046Z,9.98
2023-01-20T04:53:56.048Z,11.38
2023-01-20T04:59:16.994Z,9.70
2023-01-20T05:04:38.164Z,10.57
2023-01-20T05:09:59.011Z,9.88
2023-01-20T05:15:19.660Z,9.35
2023-01-20T05:20:40.375Z,9.52
2023-01-20T05:26:01.093Z,9.88
2023-01-20T05:31:21.775Z,9.90
2023-01-20T05:36:42.454Z,10.18
2023-01-20T05:42:03.306Z,10.30
2023-01-20T05:47:24.375Z,12.13
2023-01-20T05:52:45.078Z,12.45
2023-01-20T05:58:06.714Z,12.82
2023-01-20T06:03:27.582Z,14.38
2023-01-20T06:08:49.650Z,13.70
2023-01-20T06:14:10.497Z,12.77
2023-01-20T06:19:31.080Z,12.38
2023-01-20T06:24:52.411Z,9.10
2023-01-20T06:30:13.438Z,7.38
2023-01-20T06:35:34.191Z,7.43
2023-01-20T06:40:59.246Z,6.85
2023-01-20T06:46:20.099Z,6.38
2023-01-20T06:51:41.919Z,7.90
2023-01-20T06:57:02.813Z,7.80
2023-01-20T07:02:23.808Z,8.32
2023-01-20T07:07:48.292Z,8.13
2023-01-20T07:13:09.282Z,8.00
2023-01-20T07:18:30.137Z,8.15
2023-01-20T07:23:51.197Z,8.82
2023-01-20T07:29:12.213Z,9.35
2023-01-20T07:34:33.058Z,17.13
2023-01-20T07:39:53.867Z,26.27
2023-01-20T07:45:16.276Z,22.40
2023-01-20T07:50:37.874Z,21.40
2023-01-20T07:56:11.075Z,26.20
2023-01-20T08:01:33.054Z,25.35
2023-01-20T08:06:53.789Z,16.60
2023-01-20T08:12:14.515Z,18.48
2023-01-20T08:17:35.201Z,18.90
2023-01-20T08:22:55.786Z,17.75
2023-01-20T08:28:16.609Z,14.50
2023-01-20T08:33:37.616Z,13.18
2023-01-20T08:39:02.582Z,14.63
2023-01-20T08:44:23.622Z,12.43
2023-01-20T08:49:44.384Z,14.07
2023-01-20T08:55:05.504Z,15.52
2023-01-20T09:00:26.393Z,11.93
2023-01-20T09:05:47.479Z,11.40
2023-01-20T09:11:11.269Z,11.48
2023-01-20T09:16:32.080Z,11.68
2023-01-20T09:21:52.666Z,13.23
2023-01-20T09:27:13.330Z,14.60
2023-01-20T09:32:34.258Z,13.13
2023-01-20T09:38:13.476Z,11.68
2023-01-20T09:43:55.123Z,10.88
2023-01-20T09:49:55.706Z,8.18
2023-01-20T09:56:02.996Z,6.57
2023-01-20T10:01:31.001Z,8.55
2023-01-20T10:06:55.329Z,8.70
2023-01-20T10:12:33.034Z,8.52
2023-01-20T10:18:03.765Z,8.43
2023-01-20T10:23:34.688Z,7.95
2023-01-20T10:29:02.231Z,7.75
2023-01-20T10:34:22.975Z,8.25
2023-01-20T10:39:58.569Z,8.18
2023-01-20T10:45:52.877Z,6.68
2023-01-20T10:51:31.975Z,6.93
2023-01-20T10:56:59.034Z,8.38
2023-01-20T11:02:29.403Z,8.52
2023-01-20T11:07:54.006Z,9.23
2023-01-20T11:13:14.533Z,9.73
2023-01-20T11:18:35.246Z,8.40
2023-01-20T11:23:57.075Z,9.38
2023-01-20T11:29:17.509Z,7.95
2023-01-20T11:34:49.150Z,9.50
2023-01-20T11:40:23.048Z,9.55
2023-01-20T11:45:43.680Z,8.52
2023-01-20T11:51:04.653Z,9.52
2023-01-20T11:56:26.515Z,8.98
2023-01-20T12:02:10.823Z,7.00
2023-01-20T12:07:39.736Z,8.57
2023-01-20T12:13:12.897Z,9.68
2023-01-20T12:18:33.828Z,10.65
2023-01-20T12:24:52.878Z,9.07
2023-01-20T12:30:40.189Z,11.57
2023-01-20T12:36:30.029Z,12.27
2023-01-20T12:42:15.378Z,10.82
2023-01-20T12:48:10.452Z,9.95
2023-01-20T12:53:43.584Z,10.45
2023-01-20T12:59:17.643Z,10.80
2023-01-20T13:04:41.463Z,11.50
2023-01-20T13:10:30.364Z,10.75
2023-01-20T13:16:00.791Z,12.20
2023-01-20T13:21:21.468Z,9.60
2023-01-20T13:26:42.920Z,14.55
2023-01-20T13:32:04.999Z,15.32
2023-01-20T13:37:32.705Z,14.95
2023-01-20T13:42:54.347Z,15.43
2023-01-20T13:48:15.134Z,16.10
2023-01-20T13:53:36.003Z,14.98
2023-01-20T13:59:02.961Z,14.80
2023-01-20T14:04:24.194Z,17.25
2023-01-20T14:09:58.795Z,14.93
2023-01-20T14:15:28.541Z,13.93
2023-01-20T14:21:03.811Z,13.57
2023-01-20T14:26:27.988Z,14.30
2023-01-20T14:31:48.797Z,13.13
2023-01-20T14:37:36.434Z,12.48
2023-01-20T14:43:02.954Z,11.20
2023-01-20T14:48:34.354Z,10.50
2023-01-20T14:54:33.943Z,8.10
2023-01-20T15:00:19.555Z,10.43
2023-01-20T15:05:42.781Z,11.18
2023-01-20T15:11:18.905Z,7.22
2023-01-20T15:16:47.509Z,6.75
2023-01-20T15:22:20.870Z,9.30
2023-01-20T15:27:41.769Z,7.00
2023-01-20T15:33:02.619Z,6.65
2023-01-20T15:38:23.482Z,6.57
2023-01-20T15:43:45.594Z,10.35
2023-01-20T15:49:14.832Z,9.40
2023-01-20T15:54:35.817Z,8.77
2023-01-20T15:59:56.540Z,8.75
2023-01-20T16:05:17.922Z,9.70
2023-01-20T16:10:38.613Z,9.02
2023-01-20T16:16:00.741Z,11.20
2023-01-20T16:21:21.702Z,11.07
2023-01-20T16:26:45.517Z,11.57
2023-01-20T16:32:06.305Z,12.02
2023-01-20T16:37:26.918Z,10.95
2023-01-20T16:42:48.235Z,12.35
2023-01-20T16:48:09.345Z,11.05
2023-01-20T16:53:29.972Z,11.27
2023-01-20T16:58:54.175Z,11.77
2023-01-20T17:04:15.007Z,10.60
2023-01-20T17:09:35.972Z,11.40
2023-01-20T17:14:56.557Z,11.55
2023-01-20T17:20:18.706Z,10.32
2023-01-20T17:25:40.157Z,13.85
2023-01-20T17:31:06.367Z,8.75
2023-01-20T17:36:27.197Z,11.50
2023-01-20T17:41:47.966Z,13.20
2023-01-20T17:47:08.719Z,14.05
2023-01-20T17:52:29.351Z,12.52
2023-01-20T17:57:51.579Z,11.95
2023-01-20T18:03:12.411Z,12.80
2023-01-20T18:08:33.369Z,10.05
2023-01-20T18:13:55.977Z,12.23
2023-01-20T18:19:16.669Z,11.50
2023-01-20T18:24:37.525Z,11.35
2023-01-20T18:29:58.265Z,10.30
2023-01-20T18:35:18.998Z,12.73
2023-01-20T18:40:40.639Z,11.63
2023-01-20T18:46:01.388Z,13.02
2023-01-20T18:51:27.791Z,8.95
2023-01-20T18:56:48.593Z,11.43
2023-01-20T19:02:10.909Z,9.07
2023-01-20T19:07:31.925Z,8.07
2023-01-20T19:12:52.794Z,9.35
2023-01-20T19:18:13.949Z,9.77
2023-01-20T19:23:35.175Z,11.00
2023-01-20T19:29:07.506Z,8.23
2023-01-20T19:34:28.484Z,8.70
2023-01-20T19:39:50.344Z,12.38
2023-01-20T19:45:11.267Z,10.75
2023-01-20T19:50:33.100Z,10.43
2023-01-20T19:56:07.341Z,12.23
2023-01-20T20:01:31.980Z,10.55
2023-01-20T20:06:53.023Z,11.43
2023-01-20T20:12:13.777Z,12.15
2023-01-20T20:17:35.621Z,10.43
2023-01-20T20:22:58.587Z,9.55
2023-01-20T20:28:19.604Z,10.88
2023-01-20T20:33:40.588Z,9.90
2023-01-20T20:39:03.215Z,9.27
2023-01-20T20:44:24.481Z,9.35
2023-01-20T20:49:45.162Z,7.57
2023-01-20T20:55:07.149Z,8.93
2023-01-20T21:00:28.341Z,8.50
2023-01-20T21:05:49.563Z,8.63
2023-01-20T21:11:13.801Z,6.97
2023-01-20T21:16:35.293Z,7.97
2023-01-20T21:21:56.076Z,7.07
2023-01-20T21:27:17.840Z,7.22
2023-01-20T21:32:40.966Z,6.75
2023-01-20T21:38:01.548Z,7.43
2023-01-20T21:43:40.941Z,5.88
2023-01-20T21:49:20.390Z,7.00
2023-01-20T21:54:42.089Z,7.03
2023-01-20T22:00:06.253Z,6.65
2023-01-20T22:05:33.606Z,6.78
2023-01-20T22:10:58.551Z,6.35
2023-01-20T22:16:19.306Z,6.40
2023-01-20T22:21:39.946Z,5.82
2023-01-20T22:27:01.878Z,4.90
2023-01-20T22:32:22.442Z,6.18
2023-01-20T22:37:43.268Z,6.03
2023-01-20T22:43:03.930Z,6.13
2023-01-20T22:48:24.724Z,6.07
2023-01-20T22:53:45.800Z,6.28
2023-01-20T22:59:07.029Z,6.05
2023-01-20T23:04:27.880Z,5.65
2023-01-20T23:09:50.030Z,6.40
2023-01-20T23:15:10.844Z,6.13
2023-01-20T23:20:31.409Z,6.68
2023-01-20T23:26:00.775Z,5.50
2023-01-20T23:31:23.687Z,5.33
2023-01-20T23:36:44.720Z,4.78
2023-01-20T23:42:05.526Z,4.30
2023-01-20T23:47:26.039Z,4.38
2023-01-20T23:52:46.854Z,4.95
2023-01-20T23:58:07.683Z,5.18
